sensor_id;sensor_type;location;lat;lon;timestamp;P1;durP1;ratioP1;P2;durP2;ratioP2
13012;SDS011;22580;57.670;12.006;2022-08-21T00:00:18;0.20;;;0.20;;
13012;SDS011;22580;57.670;12.006;2022-08-21T00:02:46;0.10;;;0.10;;
13012;SDS011;22580;57.670;12.006;2022-08-21T00:05:15;0.10;;;0.10;;
13012;SDS011;22580;57.670;12.006;2022-08-21T00:07:44;0.10;;;0.10;;
13012;SDS011;22580;57.670;12.006;2022-08-21T00:10:11;0.10;;;0.10;;
13012;SDS011;22580;57.670;12.006;2022-08-21T00:12:39;0.10;;;0.10;;
13012;SDS011;22580;57.670;12.006;2022-08-21T00:15:07;0.10;;;0.10;;
13012;SDS011;22580;57.670;12.006;2022-08-21T00:17:41;0.10;;;0.10;;
13012;SDS011;22580;57.670;12.006;2022-08-21T00:20:09;0.10;;;0.10;;
13012;SDS011;22580;57.670;12.006;2022-08-21T00:22:40;0.10;;;0.10;;
13012;SDS011;22580;57.670;12.006;2022-08-21T00:25:08;0.00;;;0.00;;
13012;SDS011;22580;57.670;12.006;2022-08-21T00:27:36;0.10;;;0.10;;
13012;SDS011;22580;57.670;12.006;2022-08-21T00:30:04;0.20;;;0.20;;
13012;SDS011;22580;57.670;12.006;2022-08-21T00:32:32;0.15;;;0.15;;
13012;SDS011;22580;57.670;12.006;2022-08-21T00:35:00;0.15;;;0.15;;
13012;SDS011;22580;57.670;12.006;2022-08-21T00:37:27;0.10;;;0.10;;
13012;SDS011;22580;57.670;12.006;2022-08-21T00:39:54;0.20;;;0.20;;
13012;SDS011;22580;57.670;12.006;2022-08-21T00:42:21;0.10;;;0.10;;
13012;SDS011;22580;57.670;12.006;2022-08-21T00:44:48;0.10;;;0.10;;
13012;SDS011;22580;57.670;12.006;2022-08-21T00:47:16;0.10;;;0.10;;
13012;SDS011;22580;57.670;12.006;2022-08-21T00:49:44;0.20;;;0.20;;
13012;SDS011;22580;57.670;12.006;2022-08-21T00:52:13;0.10;;;0.10;;
13012;SDS011;22580;57.670;12.006;2022-08-21T00:54:43;0.10;;;0.10;;
13012;SDS011;22580;57.670;12.006;2022-08-21T00:57:13;0.13;;;0.13;;
13012;SDS011;22580;57.670;12.006;2022-08-21T00:59:43;0.10;;;0.10;;
13012;SDS011;22580;57.670;12.006;2022-08-21T01:02:15;0.10;;;0.10;;
13012;SDS011;22580;57.670;12.006;2022-08-21T01:04:42;0.20;;;0.20;;
13012;SDS011;22580;57.670;12.006;2022-08-21T01:07:10;0.20;;;0.20;;
13012;SDS011;22580;57.670;12.006;2022-08-21T01:09:39;0.47;;;0.28;;
13012;SDS011;22580;57.670;12.006;2022-08-21T01:12:06;0.30;;;0.30;;
13012;SDS011;22580;57.670;12.006;2022-08-21T01:14:34;0.25;;;0.25;;
13012;SDS011;22580;57.670;12.006;2022-08-21T01:17:02;0.30;;;0.20;;
13012;SDS011;22580;57.670;12.006;2022-08-21T01:19:31;0.38;;;0.30;;
13012;SDS011;22580;57.670;12.006;2022-08-21T01:22:00;0.30;;;0.30;;
13012;SDS011;22580;57.670;12.006;2022-08-21T01:24:27;0.57;;;0.40;;
13012;SDS011;22580;57.670;12.006;2022-08-21T01:26:54;0.30;;;0.30;;
13012;SDS011;22580;57.670;12.006;2022-08-21T01:29:23;0.50;;;0.40;;
13012;SDS011;22580;57.670;12.006;2022-08-21T01:31:58;0.30;;;0.30;;
13012;SDS011;22580;57.670;12.006;2022-08-21T01:34:29;0.20;;;0.20;;
13012;SDS011;22580;57.670;12.006;2022-08-21T01:36:56;0.15;;;0.15;;
13012;SDS011;22580;57.670;12.006;2022-08-21T01:39:25;0.30;;;0.30;;
13012;SDS011;22580;57.670;12.006;2022-08-21T01:41:51;0.20;;;0.20;;
13012;SDS011;22580;57.670;12.006;2022-08-21T01:44:20;0.25;;;0.20;;
13012;SDS011;22580;57.670;12.006;2022-08-21T01:46:46;0.20;;;0.20;;
13012;SDS011;22580;57.670;12.006;2022-08-21T01:49:16;0.22;;;0.20;;
13012;SDS011;22580;57.670;12.006;2022-08-21T01:51:43;0.10;;;0.10;;
13012;SDS011;22580;57.670;12.006;2022-08-21T01:54:10;0.20;;;0.15;;
13012;SDS011;22580;57.670;12.006;2022-08-21T01:56:40;0.20;;;0.20;;
13012;SDS011;22580;57.670;12.006;2022-08-21T01:59:10;0.20;;;0.20;;
13012;SDS011;22580;57.670;12.006;2022-08-21T02:01:37;0.10;;;0.10;;
13012;SDS011;22580;57.670;12.006;2022-08-21T02:04:05;0.20;;;0.20;;
13012;SDS011;22580;57.670;12.006;2022-08-21T02:06:32;0.10;;;0.10;;
13012;SDS011;22580;57.670;12.006;2022-08-21T02:08:59;0.20;;;0.20;;
13012;SDS011;22580;57.670;12.006;2022-08-21T02:11:26;0.22;;;0.20;;
13012;SDS011;22580;57.670;12.006;2022-08-21T02:13:55;0.10;;;0.10;;
13012;SDS011;22580;57.670;12.006;2022-08-21T02:16:22;0.20;;;0.20;;
13012;SDS011;22580;57.670;12.006;2022-08-21T02:18:49;0.13;;;0.13;;
13012;SDS011;22580;57.670;12.006;2022-08-21T02:21:18;0.20;;;0.20;;
13012;SDS011;22580;57.670;12.006;2022-08-21T02:23:44;0.20;;;0.20;;
13012;SDS011;22580;57.670;12.006;2022-08-21T02:26:12;0.10;;;0.10;;
13012;SDS011;22580;57.670;12.006;2022-08-21T02:28:39;0.10;;;0.10;;
13012;SDS011;22580;57.670;12.006;2022-08-21T02:31:08;0.20;;;0.20;;
13012;SDS011;22580;57.670;12.006;2022-08-21T02:33:35;0.13;;;0.13;;
13012;SDS011;22580;57.670;12.006;2022-08-21T02:36:04;0.28;;;0.28;;
13012;SDS011;22580;57.670;12.006;2022-08-21T02:38:32;0.20;;;0.20;;
13012;SDS011;22580;57.670;12.006;2022-08-21T02:41:03;0.20;;;0.20;;
13012;SDS011;22580;57.670;12.006;2022-08-21T02:43:32;0.15;;;0.10;;
13012;SDS011;22580;57.670;12.006;2022-08-21T02:45:59;0.20;;;0.20;;
13012;SDS011;22580;57.670;12.006;2022-08-21T02:48:29;0.20;;;0.20;;
13012;SDS011;22580;57.670;12.006;2022-08-21T02:50:58;0.20;;;0.20;;
13012;SDS011;22580;57.670;12.006;2022-08-21T02:53:27;0.20;;;0.20;;
13012;SDS011;22580;57.670;12.006;2022-08-21T02:55:56;0.52;;;0.30;;
13012;SDS011;22580;57.670;12.006;2022-08-21T02:58:26;0.20;;;0.20;;
13012;SDS011;22580;57.670;12.006;2022-08-21T03:00:56;0.50;;;0.25;;
13012;SDS011;22580;57.670;12.006;2022-08-21T03:03:24;0.30;;;0.30;;
13012;SDS011;22580;57.670;12.006;2022-08-21T03:05:53;0.43;;;0.40;;
13012;SDS011;22580;57.670;12.006;2022-08-21T03:08:21;0.40;;;0.40;;
13012;SDS011;22580;57.670;12.006;2022-08-21T03:10:52;0.30;;;0.30;;
13012;SDS011;22580;57.670;12.006;2022-08-21T03:13:19;0.45;;;0.45;;
13012;SDS011;22580;57.670;12.006;2022-08-21T03:15:47;0.30;;;0.28;;
13012;SDS011;22580;57.670;12.006;2022-08-21T03:18:15;0.35;;;0.35;;
13012;SDS011;22580;57.670;12.006;2022-08-21T03:20:42;0.43;;;0.43;;
13012;SDS011;22580;57.670;12.006;2022-08-21T03:23:12;0.28;;;0.28;;
13012;SDS011;22580;57.670;12.006;2022-08-21T03:25:40;0.20;;;0.20;;
13012;SDS011;22580;57.670;12.006;2022-08-21T03:28:08;0.20;;;0.20;;
13012;SDS011;22580;57.670;12.006;2022-08-21T03:30:37;0.20;;;0.20;;
13012;SDS011;22580;57.670;12.006;2022-08-21T03:33:04;0.17;;;0.17;;
13012;SDS011;22580;57.670;12.006;2022-08-21T03:35:31;0.30;;;0.30;;
13012;SDS011;22580;57.670;12.006;2022-08-21T03:37:58;0.20;;;0.20;;
13012;SDS011;22580;57.670;12.006;2022-08-21T03:40:27;0.20;;;0.20;;
13012;SDS011;22580;57.670;12.006;2022-08-21T03:42:55;0.30;;;0.20;;
13012;SDS011;22580;57.670;12.006;2022-08-21T03:45:24;0.30;;;0.30;;
13012;SDS011;22580;57.670;12.006;2022-08-21T03:47:51;0.10;;;0.10;;
13012;SDS011;22580;57.670;12.006;2022-08-21T03:50:21;0.20;;;0.20;;
13012;SDS011;22580;57.670;12.006;2022-08-21T03:52:48;0.20;;;0.20;;
13012;SDS011;22580;57.670;12.006;2022-08-21T03:55:15;0.30;;;0.30;;
13012;SDS011;22580;57.670;12.006;2022-08-21T03:57:44;0.20;;;0.20;;
13012;SDS011;22580;57.670;12.006;2022-08-21T04:00:11;0.50;;;0.50;;
13012;SDS011;22580;57.670;12.006;2022-08-21T04:02:39;0.35;;;0.32;;
13012;SDS011;22580;57.670;12.006;2022-08-21T04:05:07;0.20;;;0.20;;
13012;SDS011;22580;57.670;12.006;2022-08-21T04:07:34;0.20;;;0.20;;
13012;SDS011;22580;57.670;12.006;2022-08-21T04:10:04;0.30;;;0.30;;
13012;SDS011;22580;57.670;12.006;2022-08-21T04:12:32;0.28;;;0.20;;
13012;SDS011;22580;57.670;12.006;2022-08-21T04:15:01;0.25;;;0.25;;
13012;SDS011;22580;57.670;12.006;2022-08-21T04:17:28;0.30;;;0.30;;
13012;SDS011;22580;57.670;12.006;2022-08-21T04:19:55;0.20;;;0.20;;
13012;SDS011;22580;57.670;12.006;2022-08-21T04:22:21;0.20;;;0.20;;
13012;SDS011;22580;57.670;12.006;2022-08-21T04:24:49;0.20;;;0.20;;
13012;SDS011;22580;57.670;12.006;2022-08-21T04:27:17;0.60;;;0.30;;
13012;SDS011;22580;57.670;12.006;2022-08-21T04:29:43;0.20;;;0.20;;
13012;SDS011;22580;57.670;12.006;2022-08-21T04:32:12;0.20;;;0.20;;
13012;SDS011;22580;57.670;12.006;2022-08-21T04:34:38;0.30;;;0.30;;
13012;SDS011;22580;57.670;12.006;2022-08-21T04:37:05;0.20;;;0.20;;
13012;SDS011;22580;57.670;12.006;2022-08-21T04:39:32;0.30;;;0.20;;
13012;SDS011;22580;57.670;12.006;2022-08-21T04:41:59;0.22;;;0.10;;
13012;SDS011;22580;57.670;12.006;2022-08-21T04:44:26;0.20;;;0.20;;
13012;SDS011;22580;57.670;12.006;2022-08-21T04:46:52;0.20;;;0.20;;
13012;SDS011;22580;57.670;12.006;2022-08-21T04:49:21;0.20;;;0.20;;
13012;SDS011;22580;57.670;12.006;2022-08-21T04:51:48;0.15;;;0.15;;
13012;SDS011;22580;57.670;12.006;2022-08-21T04:54:16;0.10;;;0.10;;
13012;SDS011;22580;57.670;12.006;2022-08-21T04:56:47;0.10;;;0.10;;
13012;SDS011;22580;57.670;12.006;2022-08-21T04:59:17;0.10;;;0.10;;
13012;SDS011;22580;57.670;12.006;2022-08-21T05:01:47;0.20;;;0.20;;
13012;SDS011;22580;57.670;12.006;2022-08-21T05:04:18;0.20;;;0.20;;
13012;SDS011;22580;57.670;12.006;2022-08-21T05:06:51;0.35;;;0.28;;
13012;SDS011;22580;57.670;12.006;2022-08-21T05:09:20;0.30;;;0.30;;
13012;SDS011;22580;57.670;12.006;2022-08-21T05:11:48;0.30;;;0.30;;
13012;SDS011;22580;57.670;12.006;2022-08-21T05:14:16;0.30;;;0.30;;
13012;SDS011;22580;57.670;12.006;2022-08-21T05:16:44;0.20;;;0.20;;
13012;SDS011;22580;57.670;12.006;2022-08-21T05:19:11;0.30;;;0.30;;
13012;SDS011;22580;57.670;12.006;2022-08-21T05:21:43;0.30;;;0.30;;
13012;SDS011;22580;57.670;12.006;2022-08-21T05:24:14;0.20;;;0.20;;
13012;SDS011;22580;57.670;12.006;2022-08-21T05:26:43;0.10;;;0.10;;
13012;SDS011;22580;57.670;12.006;2022-08-21T05:29:12;0.20;;;0.20;;
13012;SDS011;22580;57.670;12.006;2022-08-21T05:31:41;0.20;;;0.20;;
13012;SDS011;22580;57.670;12.006;2022-08-21T05:34:07;0.45;;;0.45;;
13012;SDS011;22580;57.670;12.006;2022-08-21T05:36:35;0.20;;;0.20;;
13012;SDS011;22580;57.670;12.006;2022-08-21T05:39:03;0.57;;;0.47;;
13012;SDS011;22580;57.670;12.006;2022-08-21T05:41:31;0.40;;;0.40;;
13012;SDS011;22580;57.670;12.006;2022-08-21T05:43:58;0.50;;;0.50;;
13012;SDS011;22580;57.670;12.006;2022-08-21T05:46:24;0.40;;;0.40;;
13012;SDS011;22580;57.670;12.006;2022-08-21T05:48:51;0.22;;;0.22;;
13012;SDS011;22580;57.670;12.006;2022-08-21T05:51:18;0.40;;;0.40;;
13012;SDS011;22580;57.670;12.006;2022-08-21T05:53:45;0.30;;;0.30;;
13012;SDS011;22580;57.670;12.006;2022-08-21T05:56:13;0.60;;;0.43;;
13012;SDS011;22580;57.670;12.006;2022-08-21T05:58:41;0.45;;;0.45;;
13012;SDS011;22580;57.670;12.006;2022-08-21T06:01:08;0.52;;;0.50;;
13012;SDS011;22580;57.670;12.006;2022-08-21T06:03:36;0.50;;;0.50;;
13012;SDS011;22580;57.670;12.006;2022-08-21T06:06:04;0.40;;;0.40;;
13012;SDS011;22580;57.670;12.006;2022-08-21T06:08:31;0.60;;;0.60;;
13012;SDS011;22580;57.670;12.006;2022-08-21T06:10:59;0.50;;;0.50;;
13012;SDS011;22580;57.670;12.006;2022-08-21T06:13:29;0.20;;;0.20;;
13012;SDS011;22580;57.670;12.006;2022-08-21T06:16:06;0.40;;;0.40;;
13012;SDS011;22580;57.670;12.006;2022-08-21T06:18:34;0.55;;;0.55;;
13012;SDS011;22580;57.670;12.006;2022-08-21T06:21:04;0.50;;;0.50;;
13012;SDS011;22580;57.670;12.006;2022-08-21T06:23:32;0.50;;;0.50;;
13012;SDS011;22580;57.670;12.006;2022-08-21T06:26:00;0.30;;;0.30;;
13012;SDS011;22580;57.670;12.006;2022-08-21T06:28:28;0.50;;;0.50;;
13012;SDS011;22580;57.670;12.006;2022-08-21T06:30:55;0.40;;;0.40;;
13012;SDS011;22580;57.670;12.006;2022-08-21T06:33:24;0.30;;;0.30;;
13012;SDS011;22580;57.670;12.006;2022-08-21T06:35:51;0.32;;;0.32;;
13012;SDS011;22580;57.670;12.006;2022-08-21T06:38:18;0.40;;;0.40;;
13012;SDS011;22580;57.670;12.006;2022-08-21T06:40:45;0.43;;;0.40;;
13012;SDS011;22580;57.670;12.006;2022-08-21T06:43:13;0.50;;;0.50;;
13012;SDS011;22580;57.670;12.006;2022-08-21T06:45:43;0.38;;;0.38;;
13012;SDS011;22580;57.670;12.006;2022-08-21T06:48:11;0.40;;;0.40;;
13012;SDS011;22580;57.670;12.006;2022-08-21T06:50:38;0.40;;;0.40;;
13012;SDS011;22580;57.670;12.006;2022-08-21T06:53:09;0.55;;;0.50;;
13012;SDS011;22580;57.670;12.006;2022-08-21T06:55:41;0.30;;;0.30;;
13012;SDS011;22580;57.670;12.006;2022-08-21T06:58:08;0.40;;;0.40;;
13012;SDS011;22580;57.670;12.006;2022-08-21T07:00:38;0.40;;;0.40;;
13012;SDS011;22580;57.670;12.006;2022-08-21T07:03:15;0.40;;;0.40;;
13012;SDS011;22580;57.670;12.006;2022-08-21T07:05:48;0.40;;;0.40;;
13012;SDS011;22580;57.670;12.006;2022-08-21T07:08:16;0.20;;;0.20;;
13012;SDS011;22580;57.670;12.006;2022-08-21T07:10:43;0.30;;;0.30;;
13012;SDS011;22580;57.670;12.006;2022-08-21T07:13:11;0.20;;;0.20;;
13012;SDS011;22580;57.670;12.006;2022-08-21T07:15:40;0.55;;;0.55;;
13012;SDS011;22580;57.670;12.006;2022-08-21T07:18:08;0.40;;;0.40;;
13012;SDS011;22580;57.670;12.006;2022-08-21T07:20:35;0.60;;;0.60;;
13012;SDS011;22580;57.670;12.006;2022-08-21T07:23:06;0.70;;;0.70;;
13012;SDS011;22580;57.670;12.006;2022-08-21T07:25:36;0.43;;;0.43;;
13012;SDS011;22580;57.670;12.006;2022-08-21T07:28:03;0.40;;;0.40;;
13012;SDS011;22580;57.670;12.006;2022-08-21T07:30:31;0.52;;;0.52;;
13012;SDS011;22580;57.670;12.006;2022-08-21T07:32:58;0.50;;;0.50;;
13012;SDS011;22580;57.670;12.006;2022-08-21T07:35:27;0.60;;;0.50;;
13012;SDS011;22580;57.670;12.006;2022-08-21T07:37:56;0.60;;;0.60;;
13012;SDS011;22580;57.670;12.006;2022-08-21T07:40:26;1.25;;;0.82;;
13012;SDS011;22580;57.670;12.006;2022-08-21T07:42:53;0.75;;;0.70;;
13012;SDS011;22580;57.670;12.006;2022-08-21T07:45:25;0.80;;;0.80;;
13012;SDS011;22580;57.670;12.006;2022-08-21T07:47:53;0.82;;;0.82;;
13012;SDS011;22580;57.670;12.006;2022-08-21T07:50:19;1.50;;;0.90;;
13012;SDS011;22580;57.670;12.006;2022-08-21T07:52:48;0.95;;;0.70;;
13012;SDS011;22580;57.670;12.006;2022-08-21T07:55:16;0.60;;;0.60;;
13012;SDS011;22580;57.670;12.006;2022-08-21T07:57:45;0.60;;;0.60;;
13012;SDS011;22580;57.670;12.006;2022-08-21T08:00:13;0.98;;;0.70;;
13012;SDS011;22580;57.670;12.006;2022-08-21T08:02:43;0.60;;;0.60;;
13012;SDS011;22580;57.670;12.006;2022-08-21T08:05:14;0.70;;;0.60;;
13012;SDS011;22580;57.670;12.006;2022-08-21T08:07:42;0.35;;;0.35;;
13012;SDS011;22580;57.670;12.006;2022-08-21T08:10:12;0.75;;;0.55;;
13012;SDS011;22580;57.670;12.006;2022-08-21T08:12:41;0.40;;;0.40;;
13012;SDS011;22580;57.670;12.006;2022-08-21T08:15:10;0.80;;;0.80;;
13012;SDS011;22580;57.670;12.006;2022-08-21T08:17:39;1.08;;;0.93;;
13012;SDS011;22580;57.670;12.006;2022-08-21T08:20:06;0.88;;;0.88;;
13012;SDS011;22580;57.670;12.006;2022-08-21T08:22:35;0.80;;;0.80;;
13012;SDS011;22580;57.670;12.006;2022-08-21T08:25:04;0.82;;;0.82;;
13012;SDS011;22580;57.670;12.006;2022-08-21T08:27:34;1.10;;;0.80;;
13012;SDS011;22580;57.670;12.006;2022-08-21T08:30:01;1.40;;;0.80;;
13012;SDS011;22580;57.670;12.006;2022-08-21T08:32:29;0.80;;;0.80;;
13012;SDS011;22580;57.670;12.006;2022-08-21T08:34:57;0.75;;;0.75;;
13012;SDS011;22580;57.670;12.006;2022-08-21T08:37:25;0.50;;;0.50;;
13012;SDS011;22580;57.670;12.006;2022-08-21T08:39:56;1.55;;;0.60;;
13012;SDS011;22580;57.670;12.006;2022-08-21T08:42:27;0.73;;;0.73;;
13012;SDS011;22580;57.670;12.006;2022-08-21T08:45:03;0.70;;;0.52;;
13012;SDS011;22580;57.670;12.006;2022-08-21T08:47:47;0.60;;;0.60;;
13012;SDS011;22580;57.670;12.006;2022-08-21T08:50:40;0.85;;;0.60;;
13012;SDS011;22580;57.670;12.006;2022-08-21T08:53:12;0.50;;;0.50;;
13012;SDS011;22580;57.670;12.006;2022-08-21T08:55:45;0.70;;;0.70;;
13012;SDS011;22580;57.670;12.006;2022-08-21T08:58:15;1.00;;;0.60;;
13012;SDS011;22580;57.670;12.006;2022-08-21T09:00:50;1.17;;;0.80;;
13012;SDS011;22580;57.670;12.006;2022-08-21T09:03:21;1.63;;;0.75;;
13012;SDS011;22580;57.670;12.006;2022-08-21T09:05:53;0.50;;;0.50;;
13012;SDS011;22580;57.670;12.006;2022-08-21T09:08:30;0.50;;;0.50;;
13012;SDS011;22580;57.670;12.006;2022-08-21T09:11:09;0.70;;;0.70;;
13012;SDS011;22580;57.670;12.006;2022-08-21T09:13:44;0.77;;;0.52;;
13012;SDS011;22580;57.670;12.006;2022-08-21T09:16:26;0.73;;;0.73;;
13012;SDS011;22580;57.670;12.006;2022-08-21T09:19:03;1.48;;;0.80;;
13012;SDS011;22580;57.670;12.006;2022-08-21T09:21:39;0.70;;;0.70;;
13012;SDS011;22580;57.670;12.006;2022-08-21T09:24:23;0.70;;;0.70;;
13012;SDS011;22580;57.670;12.006;2022-08-21T09:27:00;1.15;;;0.82;;
13012;SDS011;22580;57.670;12.006;2022-08-21T09:29:31;1.38;;;0.77;;
13012;SDS011;22580;57.670;12.006;2022-08-21T09:32:03;0.70;;;0.70;;
13012;SDS011;22580;57.670;12.006;2022-08-21T09:34:42;0.82;;;0.70;;
13012;SDS011;22580;57.670;12.006;2022-08-21T09:37:15;1.50;;;0.90;;
13012;SDS011;22580;57.670;12.006;2022-08-21T09:39:43;0.90;;;0.90;;
13012;SDS011;22580;57.670;12.006;2022-08-21T09:42:10;0.60;;;0.60;;
13012;SDS011;22580;57.670;12.006;2022-08-21T09:44:38;0.70;;;0.70;;
13012;SDS011;22580;57.670;12.006;2022-08-21T09:47:10;0.85;;;0.80;;
13012;SDS011;22580;57.670;12.006;2022-08-21T09:49:39;0.60;;;0.60;;
13012;SDS011;22580;57.670;12.006;2022-08-21T09:52:13;1.00;;;0.90;;
13012;SDS011;22580;57.670;12.006;2022-08-21T09:54:44;0.90;;;0.80;;
13012;SDS011;22580;57.670;12.006;2022-08-21T09:57:12;0.60;;;0.60;;
13012;SDS011;22580;57.670;12.006;2022-08-21T10:00:07;1.13;;;1.02;;
13012;SDS011;22580;57.670;12.006;2022-08-21T10:02:42;0.93;;;0.80;;
13012;SDS011;22580;57.670;12.006;2022-08-21T10:05:15;1.65;;;0.70;;
13012;SDS011;22580;57.670;12.006;2022-08-21T10:07:46;0.60;;;0.60;;
13012;SDS011;22580;57.670;12.006;2022-08-21T10:10:14;0.75;;;0.75;;
13012;SDS011;22580;57.670;12.006;2022-08-21T10:12:46;0.68;;;0.68;;
13012;SDS011;22580;57.670;12.006;2022-08-21T10:15:27;0.70;;;0.70;;
13012;SDS011;22580;57.670;12.006;2022-08-21T10:18:09;0.85;;;0.85;;
13012;SDS011;22580;57.670;12.006;2022-08-21T10:20:46;1.42;;;0.82;;
13012;SDS011;22580;57.670;12.006;2022-08-21T10:23:23;1.15;;;0.77;;
13012;SDS011;22580;57.670;12.006;2022-08-21T10:26:07;0.90;;;0.80;;
13012;SDS011;22580;57.670;12.006;2022-08-21T10:28:44;0.68;;;0.68;;
13012;SDS011;22580;57.670;12.006;2022-08-21T10:31:18;1.05;;;0.73;;
13012;SDS011;22580;57.670;12.006;2022-08-21T10:33:58;0.82;;;0.82;;
13012;SDS011;22580;57.670;12.006;2022-08-21T10:36:35;1.00;;;0.70;;
13012;SDS011;22580;57.670;12.006;2022-08-21T10:39:12;0.65;;;0.60;;
13012;SDS011;22580;57.670;12.006;2022-08-21T10:41:53;1.58;;;0.80;;
13012;SDS011;22580;57.670;12.006;2022-08-21T10:44:34;0.70;;;0.70;;
13012;SDS011;22580;57.670;12.006;2022-08-21T10:47:10;0.60;;;0.60;;
13012;SDS011;22580;57.670;12.006;2022-08-21T10:49:46;0.80;;;0.63;;
13012;SDS011;22580;57.670;12.006;2022-08-21T10:52:25;2.65;;;1.00;;
13012;SDS011;22580;57.670;12.006;2022-08-21T10:55:02;1.20;;;0.77;;
13012;SDS011;22580;57.670;12.006;2022-08-21T10:57:34;0.88;;;0.75;;
13012;SDS011;22580;57.670;12.006;2022-08-21T11:00:08;0.60;;;0.60;;
13012;SDS011;22580;57.670;12.006;2022-08-21T11:02:38;0.60;;;0.60;;
13012;SDS011;22580;57.670;12.006;2022-08-21T11:05:13;0.50;;;0.50;;
13012;SDS011;22580;57.670;12.006;2022-08-21T11:07:45;1.05;;;0.60;;
13012;SDS011;22580;57.670;12.006;2022-08-21T11:10:16;0.95;;;0.73;;
13012;SDS011;22580;57.670;12.006;2022-08-21T11:12:52;0.65;;;0.60;;
13012;SDS011;22580;57.670;12.006;2022-08-21T11:15:28;0.98;;;0.60;;
13012;SDS011;22580;57.670;12.006;2022-08-21T11:18:04;0.43;;;0.43;;
13012;SDS011;22580;57.670;12.006;2022-08-21T11:20:46;0.55;;;0.55;;
13012;SDS011;22580;57.670;12.006;2022-08-21T11:23:20;0.85;;;0.73;;
13012;SDS011;22580;57.670;12.006;2022-08-21T11:25:52;0.70;;;0.65;;
13012;SDS011;22580;57.670;12.006;2022-08-21T11:28:26;0.90;;;0.80;;
13012;SDS011;22580;57.670;12.006;2022-08-21T11:31:02;0.73;;;0.50;;
13012;SDS011;22580;57.670;12.006;2022-08-21T11:33:43;0.60;;;0.60;;
13012;SDS011;22580;57.670;12.006;2022-08-21T11:36:28;1.33;;;0.73;;
13012;SDS011;22580;57.670;12.006;2022-08-21T11:39:02;0.85;;;0.77;;
13012;SDS011;22580;57.670;12.006;2022-08-21T11:41:40;0.70;;;0.70;;
13012;SDS011;22580;57.670;12.006;2022-08-21T11:44:24;0.70;;;0.70;;
13012;SDS011;22580;57.670;12.006;2022-08-21T11:47:02;1.15;;;0.90;;
13012;SDS011;22580;57.670;12.006;2022-08-21T11:49:43;0.90;;;0.90;;
13012;SDS011;22580;57.670;12.006;2022-08-21T11:52:22;0.85;;;0.70;;
13012;SDS011;22580;57.670;12.006;2022-08-21T11:54:56;0.80;;;0.80;;
13012;SDS011;22580;57.670;12.006;2022-08-21T11:57:29;0.98;;;0.80;;
13012;SDS011;22580;57.670;12.006;2022-08-21T12:00:04;0.80;;;0.80;;
13012;SDS011;22580;57.670;12.006;2022-08-21T12:02:34;1.20;;;0.90;;
13012;SDS011;22580;57.670;12.006;2022-08-21T12:05:09;1.00;;;0.90;;
13012;SDS011;22580;57.670;12.006;2022-08-21T12:07:59;1.00;;;0.90;;
13012;SDS011;22580;57.670;12.006;2022-08-21T12:10:33;1.17;;;0.70;;
13012;SDS011;22580;57.670;12.006;2022-08-21T12:13:11;1.17;;;0.88;;
13012;SDS011;22580;57.670;12.006;2022-08-21T12:15:52;0.90;;;0.90;;
13012;SDS011;22580;57.670;12.006;2022-08-21T12:18:30;0.70;;;0.70;;
13012;SDS011;22580;57.670;12.006;2022-08-21T12:21:00;0.90;;;0.90;;
13012;SDS011;22580;57.670;12.006;2022-08-21T12:23:33;0.73;;;0.70;;
13012;SDS011;22580;57.670;12.006;2022-08-21T12:26:26;1.13;;;0.80;;
13012;SDS011;22580;57.670;12.006;2022-08-21T12:31:56;1.38;;;0.98;;
13012;SDS011;22580;57.670;12.006;2022-08-21T12:34:26;1.15;;;0.80;;
13012;SDS011;22580;57.670;12.006;2022-08-21T12:36:59;0.73;;;0.73;;
13012;SDS011;22580;57.670;12.006;2022-08-21T12:39:31;1.25;;;0.90;;
13012;SDS011;22580;57.670;12.006;2022-08-21T12:42:00;0.80;;;0.80;;
13012;SDS011;22580;57.670;12.006;2022-08-21T12:44:34;0.82;;;0.73;;
13012;SDS011;22580;57.670;12.006;2022-08-21T12:47:13;0.70;;;0.70;;
13012;SDS011;22580;57.670;12.006;2022-08-21T12:49:56;0.82;;;0.80;;
13012;SDS011;22580;57.670;12.006;2022-08-21T12:52:29;0.93;;;0.70;;
13012;SDS011;22580;57.670;12.006;2022-08-21T12:55:01;0.77;;;0.77;;
13012;SDS011;22580;57.670;12.006;2022-08-21T12:57:29;0.95;;;0.95;;
13012;SDS011;22580;57.670;12.006;2022-08-21T12:59:57;1.50;;;0.60;;
13012;SDS011;22580;57.670;12.006;2022-08-21T13:02:26;1.23;;;0.82;;
13012;SDS011;22580;57.670;12.006;2022-08-21T13:04:57;0.95;;;0.95;;
13012;SDS011;22580;57.670;12.006;2022-08-21T13:07:35;0.82;;;0.80;;
13012;SDS011;22580;57.670;12.006;2022-08-21T13:10:06;1.10;;;0.63;;
13012;SDS011;22580;57.670;12.006;2022-08-21T13:12:47;0.80;;;0.65;;
13012;SDS011;22580;57.670;12.006;2022-08-21T13:15:15;0.70;;;0.70;;
13012;SDS011;22580;57.670;12.006;2022-08-21T13:17:53;0.77;;;0.75;;
13012;SDS011;22580;57.670;12.006;2022-08-21T13:20:28;0.80;;;0.60;;
13012;SDS011;22580;57.670;12.006;2022-08-21T13:22:55;0.98;;;0.70;;
13012;SDS011;22580;57.670;12.006;2022-08-21T13:25:26;0.65;;;0.65;;
13012;SDS011;22580;57.670;12.006;2022-08-21T13:27:59;1.00;;;0.90;;
13012;SDS011;22580;57.670;12.006;2022-08-21T13:30:30;1.33;;;0.93;;
13012;SDS011;22580;57.670;12.006;2022-08-21T13:33:01;0.80;;;0.80;;
13012;SDS011;22580;57.670;12.006;2022-08-21T13:35:34;0.60;;;0.60;;
13012;SDS011;22580;57.670;12.006;2022-08-21T13:38:03;0.52;;;0.52;;
13012;SDS011;22580;57.670;12.006;2022-08-21T13:40:38;0.77;;;0.70;;
13012;SDS011;22580;57.670;12.006;2022-08-21T13:43:15;0.80;;;0.60;;
13012;SDS011;22580;57.670;12.006;2022-08-21T13:45:48;0.65;;;0.65;;
13012;SDS011;22580;57.670;12.006;2022-08-21T13:48:27;0.85;;;0.85;;
13012;SDS011;22580;57.670;12.006;2022-08-21T13:50:58;0.80;;;0.80;;
13012;SDS011;22580;57.670;12.006;2022-08-21T13:53:30;1.20;;;0.88;;
13012;SDS011;22580;57.670;12.006;2022-08-21T13:56:00;0.80;;;0.80;;
13012;SDS011;22580;57.670;12.006;2022-08-21T13:58:30;0.40;;;0.40;;
13012;SDS011;22580;57.670;12.006;2022-08-21T14:00:58;0.68;;;0.50;;
13012;SDS011;22580;57.670;12.006;2022-08-21T14:03:31;0.93;;;0.70;;
13012;SDS011;22580;57.670;12.006;2022-08-21T14:06:11;1.27;;;0.70;;
13012;SDS011;22580;57.670;12.006;2022-08-21T14:08:41;0.55;;;0.55;;
13012;SDS011;22580;57.670;12.006;2022-08-21T14:11:15;0.98;;;0.60;;
13012;SDS011;22580;57.670;12.006;2022-08-21T14:13:43;0.70;;;0.70;;
13012;SDS011;22580;57.670;12.006;2022-08-21T14:16:17;0.98;;;0.85;;
13012;SDS011;22580;57.670;12.006;2022-08-21T14:18:47;0.98;;;0.75;;
13012;SDS011;22580;57.670;12.006;2022-08-21T14:21:27;0.88;;;0.80;;
13012;SDS011;22580;57.670;12.006;2022-08-21T14:24:06;0.80;;;0.80;;
13012;SDS011;22580;57.670;12.006;2022-08-21T14:26:43;1.98;;;0.90;;
13012;SDS011;22580;57.670;12.006;2022-08-21T14:29:15;0.82;;;0.70;;
13012;SDS011;22580;57.670;12.006;2022-08-21T14:31:43;0.60;;;0.60;;
13012;SDS011;22580;57.670;12.006;2022-08-21T14:34:16;0.40;;;0.40;;
13012;SDS011;22580;57.670;12.006;2022-08-21T14:36:43;2.65;;;0.60;;
13012;SDS011;22580;57.670;12.006;2022-08-21T14:39:11;0.50;;;0.50;;
13012;SDS011;22580;57.670;12.006;2022-08-21T14:41:42;0.45;;;0.45;;
13012;SDS011;22580;57.670;12.006;2022-08-21T14:44:11;0.82;;;0.70;;
13012;SDS011;22580;57.670;12.006;2022-08-21T14:46:42;0.75;;;0.70;;
13012;SDS011;22580;57.670;12.006;2022-08-21T14:49:09;0.80;;;0.68;;
13012;SDS011;22580;57.670;12.006;2022-08-21T14:51:37;1.58;;;0.70;;
13012;SDS011;22580;57.670;12.006;2022-08-21T14:54:04;1.30;;;0.90;;
13012;SDS011;22580;57.670;12.006;2022-08-21T14:56:32;1.63;;;0.90;;